createdAt,value
2023-02-13T00:00:17.353Z,40.45
2023-02-13T00:02:44.255Z,40.49
2023-02-13T00:05:11.330Z,40.57
2023-02-13T00:07:38.137Z,40.17
2023-02-13T00:10:06.183Z,40.50
2023-02-13T00:12:33.059Z,40.64
2023-02-13T00:15:00.623Z,40.32
2023-02-13T00:17:27.495Z,40.36
2023-02-13T00:19:54.326Z,40.25
2023-02-13T00:22:21.197Z,40.49
2023-02-13T00:24:51.834Z,40.38
2023-02-13T00:27:18.689Z,40.82
2023-02-13T00:29:45.709Z,40.83
2023-02-13T00:32:12.905Z,40.89
2023-02-13T00:34:39.787Z,40.60
2023-02-13T00:37:06.772Z,41.00
2023-02-13T00:39:33.633Z,41.10
2023-02-13T00:42:01.703Z,40.71
2023-02-13T00:44:28.595Z,40.72
2023-02-13T00:46:55.453Z,40.65
2023-02-13T00:49:22.414Z,41.04
2023-02-13T00:51:49.272Z,41.03
2023-02-13T00:54:16.151Z,41.29
2023-02-13T00:56:43.065Z,40.98
2023-02-13T00:59:10.037Z,41.13
2023-02-13T01:01:36.967Z,41.58
2023-02-13T01:04:04.236Z,41.30
2023-02-13T01:06:31.243Z,41.60
2023-02-13T01:08:58.158Z,41.29
2023-02-13T01:11:25.068Z,41.28
2023-02-13T01:13:51.928Z,41.86
2023-02-13T01:16:18.790Z,41.61
2023-02-13T01:18:45.718Z,41.55
2023-02-13T01:21:15.599Z,41.77
2023-02-13T01:23:42.468Z,41.67
2023-02-13T01:26:11.470Z,41.59
2023-02-13T01:28:38.340Z,41.77
2023-02-13T01:31:05.472Z,41.60
2023-02-13T01:33:32.368Z,42.02
2023-02-13T01:36:00.629Z,41.90
2023-02-13T01:38:27.479Z,41.63
2023-02-13T01:40:55.263Z,41.64
2023-02-13T01:43:23.891Z,42.01
2023-02-13T01:45:53.420Z,41.92
2023-02-13T01:48:21.578Z,42.18
2023-02-13T01:50:50.459Z,42.17
2023-02-13T01:53:18.662Z,41.94
2023-02-13T01:55:49.562Z,42.00
2023-02-13T01:58:19.018Z,42.26
2023-02-13T02:00:50.179Z,41.86
2023-02-13T02:03:20.399Z,41.94
2023-02-13T02:05:47.686Z,42.44
2023-02-13T02:08:15.068Z,42.12
2023-02-13T02:10:41.949Z,42.16
2023-02-13T02:13:11.811Z,42.14
2023-02-13T02:15:38.692Z,42.41
2023-02-13T02:18:08.663Z,42.07
2023-02-13T02:20:38.591Z,42.53
2023-02-13T02:23:08.624Z,42.49
2023-02-13T02:25:36.785Z,42.53
2023-02-13T02:28:06.715Z,42.56
2023-02-13T02:30:36.627Z,42.43
2023-02-13T02:33:04.803Z,42.30
2023-02-13T02:35:36.943Z,42.73
2023-02-13T02:38:06.806Z,42.32
2023-02-13T02:40:34.001Z,42.47
2023-02-13T02:43:02.207Z,42.74
2023-02-13T02:45:29.398Z,42.50
2023-02-13T02:48:03.196Z,42.31
2023-02-13T02:50:30.348Z,42.54
2023-02-13T02:52:57.595Z,42.49
2023-02-13T02:55:31.575Z,42.33
2023-02-13T02:58:04.511Z,42.45
2023-02-13T03:00:36.145Z,42.67
2023-02-13T03:03:08.631Z,42.52
2023-02-13T03:05:39.753Z,42.62
2023-02-13T03:08:07.110Z,43.07
2023-02-13T03:10:38.755Z,42.92
2023-02-13T03:13:12.604Z,42.70
2023-02-13T03:16:00.519Z,42.70
2023-02-13T03:18:31.007Z,43.00
2023-02-13T03:21:03.994Z,42.75
2023-02-13T03:23:36.740Z,42.60
2023-02-13T03:26:06.625Z,42.52
2023-02-13T03:28:41.345Z,43.01
2023-02-13T03:31:09.721Z,43.03
2023-02-13T03:33:39.651Z,42.63
2023-02-13T03:36:12.820Z,43.18
2023-02-13T03:38:42.936Z,42.85
2023-02-13T03:41:15.877Z,43.24
2023-02-13T03:43:56.694Z,42.99
2023-02-13T03:46:25.487Z,42.94
2023-02-13T03:48:55.539Z,42.95
2023-02-13T03:51:25.506Z,42.71
2023-02-13T03:53:55.158Z,42.70
2023-02-13T03:56:25.425Z,43.14
2023-02-13T03:58:57.791Z,43.00
2023-02-13T04:01:27.511Z,42.64
2023-02-13T04:03:57.429Z,43.04
2023-02-13T04:06:28.024Z,43.08
2023-02-13T04:08:54.915Z,43.04
2023-02-13T04:11:23.046Z,43.11
2023-02-13T04:13:55.565Z,42.73
2023-02-13T04:16:28.028Z,43.18
2023-02-13T04:18:56.347Z,42.81
2023-02-13T04:21:23.915Z,42.91
2023-02-13T04:23:50.726Z,43.14
2023-02-13T04:26:19.224Z,43.16
2023-02-13T04:28:46.122Z,42.77
2023-02-13T04:31:13.087Z,42.93
2023-02-13T04:33:39.981Z,43.15
2023-02-13T04:36:07.065Z,43.41
2023-02-13T04:38:33.877Z,43.25
2023-02-13T04:41:00.678Z,43.12
2023-02-13T04:43:27.553Z,43.33
2023-02-13T04:45:54.419Z,43.15
2023-02-13T04:48:21.390Z,43.22
2023-02-13T04:50:48.414Z,43.41
2023-02-13T04:53:15.220Z,43.27
2023-02-13T04:55:42.117Z,43.10
2023-02-13T04:58:08.987Z,43.55
2023-02-13T05:00:35.912Z,43.17
2023-02-13T05:03:05.860Z,43.44
2023-02-13T05:05:32.691Z,43.31
2023-02-13T05:07:59.514Z,43.16
2023-02-13T05:10:26.632Z,43.21
2023-02-13T05:12:53.474Z,43.10
2023-02-13T05:15:20.388Z,43.42
2023-02-13T05:17:47.468Z,43.49
2023-02-13T05:20:14.825Z,43.11
2023-02-13T05:22:47.884Z,43.12
2023-02-13T05:25:14.804Z,43.05
2023-02-13T05:27:41.682Z,44.60
2023-02-13T05:30:08.819Z,43.82
2023-02-13T05:32:35.603Z,44.09
2023-02-13T05:35:04.416Z,44.25
2023-02-13T05:37:31.699Z,43.90
2023-02-13T05:39:58.493Z,44.03
2023-02-13T05:42:25.371Z,44.01
2023-02-13T05:44:52.270Z,44.10
2023-02-13T05:47:19.109Z,44.38
2023-02-13T05:49:46.088Z,44.54
2023-02-13T05:52:12.991Z,44.29
2023-02-13T05:54:39.867Z,44.48
2023-02-13T05:57:06.730Z,43.97
2023-02-13T05:59:33.648Z,43.85
2023-02-13T06:02:00.463Z,43.74
2023-02-13T06:04:27.313Z,43.96
2023-02-13T06:06:54.139Z,43.69
2023-02-13T06:09:20.963Z,43.46
2023-02-13T06:11:47.954Z,43.43
2023-02-13T06:14:14.996Z,43.91
2023-02-13T06:16:42.107Z,43.33
2023-02-13T06:19:09.100Z,43.45
2023-02-13T06:21:38.169Z,43.39
2023-02-13T06:24:06.249Z,43.24
2023-02-13T06:26:33.202Z,42.90
2023-02-13T06:29:00.138Z,42.93
2023-02-13T06:31:27.346Z,43.17
2023-02-13T06:33:54.269Z,43.02
2023-02-13T06:36:21.157Z,42.79
2023-02-13T06:38:48.047Z,42.63
2023-02-13T06:41:14.827Z,42.28
2023-02-13T06:43:41.712Z,42.21
2023-02-13T06:46:09.098Z,42.44
2023-02-13T06:48:36.265Z,42.09
2023-02-13T06:51:03.188Z,41.83
2023-02-13T06:53:30.386Z,41.79
2023-02-13T06:55:57.649Z,41.57
2023-02-13T06:58:25.426Z,41.45
2023-02-13T07:00:52.929Z,41.52
2023-02-13T07:03:19.873Z,41.63
2023-02-13T07:05:46.793Z,41.09
2023-02-13T07:08:13.697Z,41.07
2023-02-13T07:10:41.477Z,41.04
2023-02-13T07:13:08.699Z,41.00
2023-02-13T07:15:35.740Z,40.81
2023-02-13T07:18:02.955Z,41.18
2023-02-13T07:20:29.881Z,40.88
2023-02-13T07:23:00.257Z,40.70
2023-02-13T07:25:27.450Z,40.73
2023-02-13T07:27:54.948Z,40.61
2023-02-13T07:30:22.030Z,40.82
2023-02-13T07:32:49.019Z,40.80
2023-02-13T07:35:16.059Z,40.53
2023-02-13T07:37:42.993Z,40.82
2023-02-13T07:40:10.612Z,40.94
2023-02-13T07:42:37.491Z,41.10
2023-02-13T07:45:06.588Z,41.26
2023-02-13T07:47:34.092Z,41.56
2023-02-13T07:50:01.381Z,41.36
2023-02-13T07:52:28.256Z,41.64
2023-02-13T07:54:55.130Z,41.36
2023-02-13T07:57:21.960Z,41.30
2023-02-13T07:59:48.862Z,41.31
2023-02-13T08:02:16.399Z,40.91
2023-02-13T08:04:46.668Z,40.97
2023-02-13T08:07:15.598Z,40.87
2023-02-13T08:09:47.435Z,40.97
2023-02-13T08:12:14.363Z,40.87
2023-02-13T08:14:41.232Z,40.73
2023-02-13T08:17:10.009Z,40.81
2023-02-13T08:19:36.926Z,40.90
2023-02-13T08:22:03.958Z,40.57
2023-02-13T08:24:30.850Z,40.43
2023-02-13T08:26:57.720Z,40.56
2023-02-13T08:29:24.639Z,40.75
2023-02-13T08:31:51.762Z,40.21
2023-02-13T08:34:18.880Z,40.38
2023-02-13T08:36:45.741Z,40.13
2023-02-13T08:39:12.913Z,40.57
2023-02-13T08:41:39.884Z,40.14
2023-02-13T08:44:07.048Z,40.15
2023-02-13T08:46:34.098Z,40.49
2023-02-13T08:49:00.972Z,40.04
2023-02-13T08:51:27.876Z,40.17
2023-02-13T08:53:54.866Z,40.22
2023-02-13T08:56:21.765Z,40.57
2023-02-13T08:58:49.762Z,40.57
2023-02-13T09:01:17.178Z,40.51
2023-02-13T09:03:44.195Z,39.93
2023-02-13T09:06:11.216Z,39.89
2023-02-13T09:08:38.134Z,38.55
2023-02-13T09:11:07.498Z,35.22
2023-02-13T09:13:35.631Z,34.26
2023-02-13T09:16:05.455Z,34.24
2023-02-13T09:18:32.714Z,34.40
2023-02-13T09:21:00.656Z,34.27
2023-02-13T09:23:27.643Z,34.70
2023-02-13T09:25:54.692Z,34.90
2023-02-13T09:28:21.730Z,35.22
2023-02-13T09:30:49.579Z,34.91
2023-02-13T09:33:16.592Z,35.45
2023-02-13T09:35:44.079Z,35.65
2023-02-13T09:38:11.084Z,35.31
2023-02-13T09:40:41.122Z,35.65
2023-02-13T09:43:13.455Z,35.91
2023-02-13T09:45:40.885Z,36.24
2023-02-13T09:48:10.950Z,36.58
2023-02-13T09:50:39.975Z,36.72
2023-02-13T09:53:06.867Z,36.67
2023-02-13T09:55:38.479Z,36.97
2023-02-13T09:58:11.244Z,37.59
2023-02-13T10:00:41.232Z,37.88
2023-02-13T10:03:16.853Z,38.75
2023-02-13T10:05:46.804Z,38.90
2023-02-13T10:08:16.796Z,38.75
2023-02-13T10:10:46.725Z,38.84
2023-02-13T10:13:23.958Z,39.05
2023-02-13T10:15:55.003Z,39.17
2023-02-13T10:18:25.384Z,39.33
2023-02-13T10:20:53.799Z,39.46
2023-02-13T10:23:25.720Z,39.16
2023-02-13T10:25:53.018Z,39.17
2023-02-13T10:28:27.097Z,39.22
2023-02-13T10:30:56.701Z,39.59
2023-02-13T10:33:28.974Z,39.63
2023-02-13T10:35:56.668Z,39.17
2023-02-13T10:38:24.186Z,39.59
2023-02-13T10:40:54.213Z,39.43
2023-02-13T10:43:21.616Z,39.72
2023-02-13T10:45:51.578Z,39.52
2023-02-13T10:48:21.757Z,39.44
2023-02-13T10:50:58.840Z,39.75
2023-02-13T10:53:28.821Z,39.59
2023-02-13T10:55:58.331Z,39.85
2023-02-13T10:58:26.720Z,39.71
2023-02-13T11:00:59.074Z,39.50
2023-02-13T11:03:27.457Z,39.55
2023-02-13T11:05:55.254Z,39.74
2023-02-13T11:08:24.624Z,39.70
2023-02-13T11:10:52.770Z,39.88
2023-02-13T11:13:22.421Z,39.81
2023-02-13T11:15:52.561Z,39.83
2023-02-13T11:18:21.911Z,40.14
2023-02-13T11:20:58.822Z,39.65
2023-02-13T11:23:29.311Z,40.04
2023-02-13T11:25:59.660Z,39.93
2023-02-13T11:28:28.574Z,40.13
2023-02-13T11:31:09.092Z,40.17
2023-02-13T11:33:36.196Z,40.10
2023-02-13T11:36:06.175Z,39.77
2023-02-13T11:38:33.457Z,40.00
2023-02-13T11:41:03.482Z,40.01
2023-02-13T11:43:32.016Z,39.71
2023-02-13T11:46:02.390Z,39.98
2023-02-13T11:48:29.331Z,39.62
2023-02-13T11:50:56.836Z,39.83
2023-02-13T11:53:25.898Z,39.97
2023-02-13T11:55:59.059Z,39.71
2023-02-13T11:58:28.189Z,40.07
2023-02-13T12:00:58.234Z,39.61
2023-02-13T12:03:28.614Z,39.61
2023-02-13T12:05:59.005Z,39.55
2023-02-13T12:08:26.108Z,39.64
2023-02-13T12:10:54.256Z,39.67
2023-02-13T12:13:27.768Z,39.66
2023-02-13T12:16:00.845Z,39.85
2023-02-13T12:18:28.398Z,39.96
2023-02-13T12:20:58.683Z,39.49
2023-02-13T12:23:27.213Z,39.42
2023-02-13T12:25:54.416Z,39.83
2023-02-13T12:28:34.163Z,39.43
2023-02-13T12:31:01.995Z,39.59
2023-02-13T12:33:37.690Z,39.38
2023-02-13T12:36:07.663Z,39.16
2023-02-13T12:38:35.870Z,39.53
2023-02-13T12:41:05.913Z,39.09
2023-02-13T12:43:35.930Z,39.34
2023-02-13T12:46:06.158Z,39.41
2023-02-13T12:48:36.152Z,39.34
2023-02-13T12:51:06.088Z,39.37
2023-02-13T12:53:34.380Z,38.91
2023-02-13T12:56:06.270Z,38.72
2023-02-13T12:58:34.514Z,38.83
2023-02-13T13:01:04.488Z,38.98
2023-02-13T13:03:34.868Z,38.86
2023-02-13T13:06:11.735Z,38.60
2023-02-13T13:08:42.271Z,38.41
2023-02-13T13:11:12.319Z,38.69
2023-02-13T13:13:46.879Z,38.36
2023-02-13T13:16:17.177Z,38.20
2023-02-13T13:18:45.476Z,38.13
2023-02-13T13:21:18.679Z,38.46
2023-02-13T13:23:48.635Z,38.51
2023-02-13T13:26:16.127Z,38.15
2023-02-13T13:28:44.902Z,38.30
2023-02-13T13:31:13.366Z,38.23
2023-02-13T13:33:42.128Z,38.31
2023-02-13T13:36:15.094Z,38.36
2023-02-13T13:38:45.056Z,38.00
2023-02-13T13:41:18.383Z,38.07
2023-02-13T13:43:48.285Z,37.97
2023-02-13T13:46:18.912Z,37.58
2023-02-13T13:48:49.040Z,37.37
2023-02-13T13:51:17.535Z,37.76
2023-02-13T13:53:47.751Z,37.63
2023-02-13T13:56:14.706Z,37.72
2023-02-13T13:58:42.054Z,37.53
2023-02-13T14:01:12.098Z,37.72
2023-02-13T14:03:39.323Z,37.85
2023-02-13T14:06:08.939Z,37.48
2023-02-13T14:08:38.974Z,38.06
2023-02-13T14:11:07.444Z,38.19
2023-02-13T14:13:35.857Z,38.04
2023-02-13T14:16:03.412Z,38.31
2023-02-13T14:18:30.771Z,38.45
2023-02-13T14:21:00.918Z,38.27
2023-02-13T14:23:31.081Z,38.42
2023-02-13T14:26:00.986Z,38.23
2023-02-13T14:28:28.179Z,38.21
2023-02-13T14:31:07.716Z,38.82
2023-02-13T14:33:35.013Z,38.84
2023-02-13T14:36:04.971Z,39.05
2023-02-13T14:38:32.271Z,38.89
2023-02-13T14:40:59.897Z,38.09
2023-02-13T14:43:30.143Z,38.06
2023-02-13T14:45:59.505Z,38.15
2023-02-13T14:48:33.929Z,38.43
2023-02-13T14:51:01.255Z,37.93
2023-02-13T14:53:31.694Z,38.18
2023-02-13T14:56:02.872Z,38.01
2023-02-13T14:58:32.738Z,38.30
2023-02-13T15:01:00.320Z,38.31
2023-02-13T15:03:30.383Z,37.72
2023-02-13T15:05:59.803Z,37.71
2023-02-13T15:08:28.653Z,37.78
2023-02-13T15:10:57.263Z,37.88
2023-02-13T15:13:28.317Z,38.15
2023-02-13T15:15:59.285Z,38.35
2023-02-13T15:18:28.284Z,39.07
2023-02-13T15:20:58.489Z,38.30
2023-02-13T15:23:29.056Z,38.39
2023-02-13T15:25:58.367Z,38.43
2023-02-13T15:28:25.904Z,38.30
2023-02-13T15:30:55.488Z,38.93
2023-02-13T15:33:23.126Z,38.85
2023-02-13T15:35:53.102Z,39.36
2023-02-13T15:38:25.180Z,39.90
2023-02-13T15:40:53.779Z,39.44
2023-02-13T15:43:24.413Z,39.61
2023-02-13T15:45:51.371Z,39.82
2023-02-13T15:48:18.895Z,40.34
2023-02-13T15:50:47.849Z,40.42
2023-02-13T15:53:15.807Z,40.57
2023-02-13T15:55:42.813Z,40.33
2023-02-13T15:58:13.641Z,40.32
2023-02-13T16:00:42.346Z,40.41
2023-02-13T16:03:14.910Z,40.19
2023-02-13T16:05:42.152Z,39.89
2023-02-13T16:08:12.130Z,40.08
2023-02-13T16:10:39.114Z,40.07
2023-02-13T16:13:07.095Z,39.87
2023-02-13T16:15:35.830Z,39.59
2023-02-13T16:18:04.311Z,39.60
2023-02-13T16:20:33.478Z,39.73
2023-02-13T16:23:05.390Z,39.73
2023-02-13T16:25:33.654Z,39.49
2023-02-13T16:28:02.472Z,39.42
2023-02-13T16:30:32.929Z,39.38
2023-02-13T16:33:03.560Z,39.71
2023-02-13T16:35:31.523Z,40.09
2023-02-13T16:38:02.030Z,40.28
2023-02-13T16:40:32.033Z,39.82
2023-02-13T16:43:02.120Z,40.14
2023-02-13T16:45:29.106Z,40.23
2023-02-13T16:48:00.260Z,39.87
2023-02-13T16:50:27.218Z,39.96
2023-02-13T16:52:59.698Z,39.91
2023-02-13T16:55:26.637Z,39.92
2023-02-13T16:58:01.020Z,40.02
2023-02-13T17:00:28.456Z,39.79
2023-02-13T17:02:55.477Z,39.80
2023-02-13T17:05:23.990Z,39.98
2023-02-13T17:07:52.016Z,39.57
2023-02-13T17:10:21.562Z,39.89
2023-02-13T17:12:49.022Z,39.80
2023-02-13T17:15:17.904Z,39.69
2023-02-13T17:17:45.190Z,39.57
2023-02-13T17:20:17.343Z,39.55
2023-02-13T17:22:46.355Z,39.85
2023-02-13T17:25:16.314Z,39.79
2023-02-13T17:27:43.422Z,39.71
2023-02-13T17:30:13.522Z,39.49
2023-02-13T17:32:40.501Z,39.35
2023-02-13T17:35:07.568Z,39.69
2023-02-13T17:37:34.904Z,39.54
2023-02-13T17:40:01.795Z,39.61
2023-02-13T17:42:29.768Z,39.14
2023-02-13T17:44:57.710Z,39.11
2023-02-13T17:47:25.393Z,39.46
2023-02-13T17:49:55.163Z,39.42
2023-02-13T17:52:27.073Z,39.53
2023-02-13T17:54:54.080Z,39.33
2023-02-13T17:57:21.029Z,39.03
2023-02-13T17:59:48.107Z,39.42
2023-02-13T18:02:16.400Z,39.28
2023-02-13T18:04:43.374Z,39.21
2023-02-13T18:07:11.266Z,39.42
2023-02-13T18:09:38.313Z,39.30
2023-02-13T18:12:06.099Z,39.37
2023-02-13T18:14:33.764Z,39.02
2023-02-13T18:17:00.901Z,39.34
2023-02-13T18:19:28.120Z,39.25
2023-02-13T18:21:55.111Z,39.36
2023-02-13T18:24:22.238Z,38.95
2023-02-13T18:26:49.228Z,39.14
2023-02-13T18:29:16.237Z,39.24
2023-02-13T18:31:43.235Z,39.26
2023-02-13T18:34:10.479Z,38.93
2023-02-13T18:36:37.410Z,39.38
2023-02-13T18:39:04.753Z,39.38
2023-02-13T18:41:31.659Z,39.14
2023-02-13T18:43:58.588Z,39.14
2023-02-13T18:46:25.682Z,39.18
2023-02-13T18:48:52.655Z,39.38
2023-02-13T18:51:19.676Z,39.37
2023-02-13T18:53:46.626Z,39.18
2023-02-13T18:56:13.691Z,39.47
2023-02-13T18:58:40.964Z,39.33
2023-02-13T19:01:09.186Z,39.50
2023-02-13T19:03:37.049Z,39.42
2023-02-13T19:06:05.499Z,39.58
2023-02-13T19:08:36.005Z,39.46
2023-02-13T19:11:03.932Z,39.78
2023-02-13T19:13:32.268Z,39.63
2023-02-13T19:16:02.189Z,39.56
2023-02-13T19:18:29.087Z,39.84
2023-02-13T19:20:59.362Z,39.48
2023-02-13T19:23:26.471Z,39.90
2023-02-13T19:25:53.364Z,39.70
2023-02-13T19:28:20.270Z,39.51
2023-02-13T19:30:47.215Z,39.71
2023-02-13T19:33:14.407Z,39.62
2023-02-13T19:35:41.571Z,39.91
2023-02-13T19:38:08.586Z,39.99
2023-02-13T19:40:35.536Z,40.01
2023-02-13T19:43:02.417Z,39.78
2023-02-13T19:45:29.351Z,39.66
2023-02-13T19:47:56.522Z,40.08
2023-02-13T19:50:23.348Z,39.77
2023-02-13T19:52:51.244Z,39.92
2023-02-13T19:55:18.188Z,39.97
2023-02-13T19:57:45.018Z,40.02
2023-02-13T20:00:12.353Z,39.86
2023-02-13T20:02:39.427Z,39.88
2023-02-13T20:05:08.752Z,39.81
2023-02-13T20:07:35.654Z,39.84
2023-02-13T20:10:02.589Z,40.15
2023-02-13T20:12:29.793Z,39.71
2023-02-13T20:14:57.063Z,40.08
2023-02-13T20:17:24.103Z,39.78
2023-02-13T20:19:52.370Z,40.05
2023-02-13T20:22:19.393Z,39.59
2023-02-13T20:24:47.489Z,39.70
2023-02-13T20:27:14.772Z,39.79
2023-02-13T20:29:42.136Z,39.68
2023-02-13T20:32:09.254Z,40.11
2023-02-13T20:34:44.293Z,39.91
2023-02-13T20:37:16.922Z,39.77
2023-02-13T20:39:43.803Z,40.20
2023-02-13T20:42:10.746Z,40.10
2023-02-13T20:44:37.615Z,40.12
2023-02-13T20:47:04.606Z,39.82
2023-02-13T20:49:31.500Z,40.18
2023-02-13T20:51:58.374Z,40.17
2023-02-13T20:54:25.234Z,39.92
2023-02-13T20:56:52.117Z,39.78
2023-02-13T20:59:19.426Z,40.08
2023-02-13T21:01:47.270Z,39.86
2023-02-13T21:04:19.401Z,40.03
2023-02-13T21:06:47.923Z,39.87
2023-02-13T21:09:16.888Z,40.06
2023-02-13T21:11:45.142Z,40.27
2023-02-13T21:14:13.810Z,40.06
2023-02-13T21:16:43.685Z,39.96
2023-02-13T21:19:14.508Z,40.44
2023-02-13T21:21:46.214Z,40.07
2023-02-13T21:24:17.733Z,40.07
2023-02-13T21:26:48.431Z,40.53
2023-02-13T21:29:17.595Z,40.16
2023-02-13T21:31:48.129Z,40.42
2023-02-13T21:34:17.909Z,40.68
2023-02-13T21:36:45.561Z,40.29
2023-02-13T21:39:13.172Z,40.65
2023-02-13T21:41:41.208Z,40.45
2023-02-13T21:44:08.119Z,40.43
2023-02-13T21:46:35.051Z,40.77
2023-02-13T21:49:04.202Z,40.71
2023-02-13T21:51:32.857Z,40.89
2023-02-13T21:53:59.779Z,40.43
2023-02-13T21:56:27.911Z,40.70
2023-02-13T21:58:55.533Z,40.49
2023-02-13T22:01:26.880Z,40.57
2023-02-13T22:03:56.843Z,40.81
2023-02-13T22:06:25.606Z,40.83
2023-02-13T22:08:55.588Z,40.72
2023-02-13T22:11:22.473Z,40.86
2023-02-13T22:13:50.272Z,40.56
2023-02-13T22:16:17.322Z,40.09
2023-02-13T22:18:45.140Z,40.54
2023-02-13T22:21:13.856Z,40.38
2023-02-13T22:23:41.162Z,40.64
2023-02-13T22:26:08.281Z,40.27
2023-02-13T22:28:35.053Z,40.41
2023-02-13T22:31:11.188Z,40.42
2023-02-13T22:33:38.008Z,40.30
2023-02-13T22:36:08.149Z,40.82
2023-02-13T22:38:36.365Z,40.57
2023-02-13T22:41:04.593Z,40.52
2023-02-13T22:43:31.669Z,40.27
2023-02-13T22:46:02.632Z,40.45
2023-02-13T22:48:29.443Z,40.48
2023-02-13T22:50:56.231Z,40.43
2023-02-13T22:53:22.961Z,40.04
2023-02-13T22:55:49.803Z,40.23
2023-02-13T22:58:16.548Z,39.82
2023-02-13T23:00:43.611Z,39.63
2023-02-13T23:03:10.571Z,39.99
2023-02-13T23:05:39.184Z,39.75
2023-02-13T23:08:05.960Z,39.99
2023-02-13T23:10:33.424Z,39.76
2023-02-13T23:13:00.423Z,39.70
2023-02-13T23:15:29.557Z,39.74
2023-02-13T23:17:59.794Z,39.73
2023-02-13T23:20:27.572Z,40.07
2023-02-13T23:22:54.540Z,40.00
2023-02-13T23:25:21.984Z,39.78
2023-02-13T23:27:48.959Z,40.11
2023-02-13T23:30:17.124Z,40.05
2023-02-13T23:32:44.093Z,39.86
2023-02-13T23:35:11.436Z,40.14
2023-02-13T23:37:38.264Z,40.35
2023-02-13T23:40:09.396Z,40.28
2023-02-13T23:42:36.280Z,40.21
2023-02-13T23:45:03.198Z,40.27
2023-02-13T23:47:32.434Z,40.25
2023-02-13T23:49:59.314Z,40.32
2023-02-13T23:52:26.289Z,40.48
2023-02-13T23:54:53.194Z,40.33
2023-02-13T23:57:20.106Z,40.11
2023-02-13T23:59:47.509Z,40.41
